Catch New Year Daily Coupon from Banggood All Products Now

0

Here are coupons from Banggood, we will update their coupon to help you enjoy cheaper price daily for CES 2019. Stay tuned.

Update On Jan.21, 2019

Date Product name Link on Coupon
Coupon Price ($)
2019.01.21 20% off for XIAOMI Car Air Vent Perfume Clip eb7043 $18.39
2019.01.21 20% off for Baseus Car Temporary Parking Phone Number Card f8eded $7.33
2019.01.21 MIUK Stainless Steel Vacuum Wine Sealer Bottle Stopper 15a4e6 $2.55
2019.01.21 Redmi Note 5 CN 4+64G 2BGN564 US$139.98
2019.01.21 Redmi 6A EU 2+16G 1BG6AGCL US$86.50
2019.01.21 Redmi 6A EU 2+32G 2BG6A3 US$98.89
2019.01.21 XIAOMI note3 6GB+128GB BGNote3 US$209.99
2019.01.21 NOKIA X6 6GB 64GB 2BGX66 US$189.99

 

Update On Jan.18, 2019

Date Product name Link on Coupon
Coupon Price ($)
2019.01.18 MIUK Stainless Steel Vacuum Wine Sealer Bottle Stopper 15a4e6 $2.55
2019.01.18 $155.99 for Xiaomi AI HD Wireless Bluetooth Speaker 7d4d98 155.99
2019.01.18 Earphone New Year Sale 15earbud /
2019.01.18 $16.19 for BlitzWolf BW-BS3 Versatile 3 in 1 Bluetooth Tripod Selfie Sticks 15BWBS3 16.19
2019.01.18 $17.49 for PANDA 40X60 HD Zoom Lens Camping Travel Waterproof Monocular Telescope+Tripod+Clip 0adfce 17.49
2019.01.18 $11 for Extendable Bluetooth Remote Control Mirror Selfie Stick Monopod 15yt1288 11
2019.01.18 $55.99 for Bakeey Bluetooth 5.0 True Wireless Graphene Driver Stereo Earphone 35d191 44.99
2019.01.18 $6.99 for Bakeey 2 Inch 10W Dual Magnetic Full Frequency Multimedia Speaker b6ed95 4.99
2019.01.18 Redmi 6 EU 3+64G 19RM6 US$114.99
2019.01.18 Mi8 Lite 4+64G EU 1M8L4 US$214.99
2019.01.18 Redmi Note 5 CN 4+64G 19RDM5 US$148.73
2019.01.18 Ulefone Armor 6 6GB 128GB 1BGA62 US$334.99
2019.01.18 Tsumbay Ai01 TouchAI BGAI01 US$19.99
2019.01.18 $34.99 for Touch Control True wireless Bluetooth 5.0 Earphone 21abf9 $34.99
2019.01.18 $27.99 for JOYROOM T04 Bluetooth True Wireless Binaural Stereo Earphone 20JR $27.99

 

Update On Jan.17, 2019

Date Product Name Link on Coupon
Coupon Price ($)
2019.01.17 Eachine EX2mini Brushless 5.8G FPV RC Drone Quadcopter RTF 2b6adc $55.99
2019.01.17 $19.19 For Woodworking Angle Ruler 186714 $19.19
2019.01.17 $11.99 FOR Loskii LW-102 LED Water Shower Thermometer b586c7 $11.99
2019.01.17 $8.49 For XIAOMI Deerma Mosquito Dispeller 8bc905 $8.49
2019.01.17 $7.99 For XIAOMI VIOMI Kitchen Refrigerator Air Purifier 002e0d $7.99
2019.01.17 Only $55.55 For XIAOMI Mijia DFB201CM Small Rice Cooker 1.6L 400W Cokker55 $55.55
2019.01.17 $4.44 For KCASA Ultra-thin Fingerprint Sensing Touch Sensor USB Lighter 613dad $4.44
2019.01.17 Limited Coupon Only $16.99 For Digoo BB-T2 USB Ceramic R-Blade Hair Clipper 1599DG $16.99
2019.01.17 XIAOMI-Oclean-Air-Electric-Toothbrush-Intelligent-APP-Control a45b01 $39.94
2019.01.17 Mi 8 Lite 6+128G CN 1BGM8L6 US$258.96
2019.01.17 Pocophone F1 EU 6+64G 1F1BG4 US$288.99
2019.01.17 Mi A2 EU 4+64G 19XMA2642 US$197.39
2019.01.17 Mi A2 Lite EU 4+64G 19MA2L2 US$177.99
2019.01.17 Redmi Note 6 Pro EU 3+32 19XMN7 US$169.84
2019.01.17 Huawei Maimang 7 CN 6GB 64GB BGM764 US$269.99
2019.01.17 Huawei Maimang 7 Global ROM 6GB 64GB BGM764G US$279.99

 

Update On Jan.15, 2019

Date Product name Link on Coupon
Coupon Price ($)
2019.01.15 38% off for DIGOO DG-8888 FM Radio Alarm Clock cc7095 $18.59
2019.01.15 Mi8 6+64G EU 1BGM8G2 US$359.91
2019.01.15 Mi8 6+128G EU 1BGM86GB US$394.02
2019.01.15 Pocophone F1 EU 6+64G 1F1BG3 US$292.39
2019.01.15 Redmi 6A EU 2+16G 1BG6AGCL US$86.50
2019.01.15 MAX 3 EU 4+64G 1BGMax3 US$237.48
2019.01.15 20% off for Xiaomi Sunny Night Light SUN20 $15.99
2019.01.15 30% off for Kcasa Plants Tester 90f4f2 $6.99
2019.01.15 30% Off for Hot Flashlights AC18
promotion page
2019.01.15 Convoy S2+ Black L2 7135×8 3/5mode EDC LED Flashlight SCS2 $9.99
2019.01.15 Convoy C8+ Black 7135*8 XPL HI 1100LM LED Tactical Flashlight SCC8 $15.80
2019.01.15 10% off for Anne Pro 2 Gateron Switch 6117ea 71.99
2019.01.15 10% off for AKKO Ducky One 2 Mini 6117ea 89.99
2019.01.15 10% off for Anne Pro 2 Kailh BOX Switch 6117ea 80.99
2019.01.15 Digoo-DG-TB10-LCD c0d4b5 3.99
2019.01.15 Xiaomi-SOOCAS-H3S-Anion-Hair-Dryer 61b33d $53.54
2019.01.15 Original-Xiaomi-Soocare-Soocas-H3-Anion-Hair-Dryer 28f781 $45
2019.01.15 Tsumbay Ai01 TouchAI BGAI01 US$19.99
2019.01.15 Original Xiaomi Amazfit Verge International Version AMOLED IP68 GPS+GLONASS 5Days Standby Smart Watch 49verge $149.99

 

Update On Jan.14, 2019

Date Product name Link on Coupon
Coupon Price ($)
2019.01.14 MantisTek® GM2 3500DPI Adjustable USB Wired RGB Optical Gaming Mouse 215c65 $9.99
2019.01.14 Billion Capture Plus Global Version 4GB 64GB Deals 1BGBCP4 US$109.99
2019.01.14 Redmi 6 EU 3+64G 19RM6 US$114.99
2019.01.14 Mi A2 EU 4+64G 19XMA264 US$199.99
2019.01.14 Mi A2 Lite EU 3+32G 1BGA24CL2 US$146.99
2019.01.14 Mi A2 Lite EU 4+64G 19MA2L US$179.99
2019.01.14 Redmi Note 5 CN 4+64G 19RDM5 US$148.73
2019.01.14 Redmi Note 6 Pro EU 3+32 19XMN6 US$171.99
2019.01.14 Redmi Note 6 Pro EU 4+64G 19MN64 US$199.99
2019.01.14 XIAOMI note3 6GB+128GB 19BGN3 US$229.99

 

Update On Jan.11, 2019

Date Product name Link on Coupon
Coupon Price ($)
2019.01.11 Redmi 6 EU 3+64G 12BGR66GG US$108.99
2019.01.11 Redmi 6A EU 2+32G 1BG6A3 US$99.45
2019.01.11 Redmi 6 EU 3+32G 1BGR63 US$117.81
2019.01.11 Xiaomi Mi8 Pro Global Version 8 128GB 1BG8P2 US$489.99
2019.01.11 Xiaomi Youth Bluetooth Sports Earphone 59a736 $14.99
2019.01.11 Xiaomi MiPad 4 Plus 4+128 LTE版 中英原版ROM 黑色 5170e8 $296.99
2019.01.11 Xiaomi MiPad 4 Plus LTE版 4+64G 多国语言版ROM f8d9e5 $279.99
2019.01.11 UPTO 50% OFF Promotion For RC Product Sale S5035
2019.01.11 MJX B5W Altitude Hold RC Drone Quadcopter RTF 22% off 8ec3a0 $139.62
2019.01.11 Eachine E010S PRO High Hold Mode RC Drone Quadcopter 20% off 49d31c $42.39
2019.01.11 New V2.0 Version FXT VIPER 5.8GHz Diversity HD FPV Goggles with DVR Built-in Refractor Pro $165.99
2019.01.11 New Year ONLY URUAV Martian_S 220mm 4mm Carbon Fiber FPV Racing Frame Kit w/PDB Board martians $9.99
2019.01.11 Emax HAWK 5 FPV Racing Drone F4 OSD BLHeli_S 30A FrSky XM+ RX Foxeer Arrow Micro V2 600TVL BNF 12emha $219.99

 

Update On Jan.10, 2019

Date Product name Link on Coupon
Coupon Price ($)
2019.01.10 OnePlus 6 6GB 64GB Deals 1BGOP61 US$391.99
2019.01.10 Mi8 Lite 4+64G EU 1M8L4 US$214.99
2019.01.10 Mi8 Lite 6+128G EU 1BGM8L6 US$258.96
2019.01.10 Mi A2 Lite EU 3+32G 1BGA24CL2 US$146.99
2019.01.10 MAX 3 EU 4+64G 1BGMax3 US$237.48

 

Update On Jan.5, 2019

Date Product name Link on Coupon Coupon Price ($)
2019.01.05 Redmi 6A EU 2+32G 1BG6A3 US$102.34
2019.01.05 MAX 3 EU 4+64G 1BGMax3 US$237.48
2019.01.05 ZTE Nubia V18 Global Version 4GB 64GB Deals 1BGV18 US$144.99
2019.01.05 Xiaomi Aluminum Alloy Mouse Pad
20%off
cffbd2 $13.59
2019.01.05 XiaoMi 2.4G Wireless Mouse
20%off
cffbd2 $11.99

 

Update On Jan.3, 2019

Date Product name Link on Coupon
Coupon Price ($)
2019.01.03 Mi8 6+64G EU 1BGM8 US$367.99
2019.01.03 Mi8 6+128G EU 1BGM8128 US$381.17
2019.01.03 Redmi Note 6 Pro EU 3+32 1BGN6PG2 US$159.99
2019.01.03 OnePlus 6 6GB 64GB Deals 1BGOP61 US$393.99
2019.01.03 OnePlus 6 8GB 128GB Deals 1BGOP62 US$419.99
2019.01.03 OnePlus 6T 6GB 128GB Deals 1BGOP6T1 US$515.95
2019.01.03 OnePlus 6T 8GB 128GB Deals 1BGOP6T2 US$545.99
2019.01.03 GOME U7 4GB 64GB Deals 1BGU7 US$89.99
2019.01.03 Huawei Honor Play Global Version 4GB 64GB 1BGHP64 US$279.99

 

Update On Jan.2, 2019

Date Product name Link on Coupon
Coupon Price ($)
2019.01.02 International Version Xiaomi AMAZFIT Huami Strato Sports Smart Watch 2 69at2 $169.99
2019.01.02 International Chinese Version Xiaomi Amazfit Verge 5Days Standby Smart Watch 49verge $149.99
2019.01.02 Bakeey M16 Big Screen Durable Metal Case Blood Pressure Smart Watch 13M16 $13.99
2019.01.02 Bakeey M20 Blood Oxygen Pressure Long Standby Smart Watch 14m20 $14.99
2019.01.02 Bakeey Y3 Heart Rate IP68 APP Push Smart Band 99Y3 $13.99
2019.01.02 Bakeey M30 Sleep Blood Oxygen Pressure Message Alarm Smart Watch 14m30 $14.99
2019.01.02 Huawei Honor Band 4 Running Version Shoe-Buckle Smart Band 99run $19.99
2019.01.02 Huawei Honor Band 4 AMOLED Swim Posture Detect Heart Rate Smart Watch Band 35ho $35.99
2019.01.02 Huawei Honor Watch Magic 1.2′ AMOLED GPS Multi-sport Long Battery Life Smart Watch 49honor $149.99
2019.01.02 Newwear Q9 Multi-dial Face Menstrual Period Blood Pressure Fashion Smart Watch 16q9 $16.99
2019.01.02 Newwear Q8 Stainless Steel Color Screen Blood Pressure Heart Rate Smart Watch 28q8 $27.88
2019.01.02 Kospet Hope 3G+32G 4G-LTE Watch Phone 12hope $139.99
2019.01.02 40% OFF for Xiaomi Youth Bluetooth Sports Earphone e1b517 $14.99
2019.01.02 40% OFF for Xiaomi Mini Wireless Bluetooth Earphone 19432c $ 12.99
2019.01.02 30% OFF for Xiaomi Sport Earhooks Wireless Bluetooth Headset e40853 $ 20.29
2019.01.02 45% OFF for Xiaomi Hybrid 2 Earphone 1757b3 $ 15.99
2019.01.02 35% OFF for Xiaomi Youth Version Neckband Wireless Bluetooth Earphone 4081e5 $ 25.99
2019.01.02 40% OFF for Xiaomi Ceramics Dynamic Earphone 6b93a5 $ 11.99
2019.01.02 30% OFF for Xiaomi Aluminum Alloy Mini Bluetooth Speaker 3afd1f $10.99
2019.01.02 45% OFF for Xiaomi AI Portable Version Wireless Bluetooth Speaker 60bb88 $ 10.99
2019.01.02 45% OFF for Xiaomi Type-C Earphone Dynamic Driver+Ceramics Driver Headphone 6baf92 $ 15.59
2019.01.02 30% OFF for Xiaomi Hybrid Pro Three Drivers Graphene Earphone 1513f8 $ 20.99
2019.01.02 25% OFF for Xiaomi Square Box Ⅱ Bluetooth Speaker e2db5f $23.99
2019.01.02 35% OFF for Xiaomi 2 in 1 Bluetooth Extendable Folding Tripod Selfie Stick 69389b $ 13.99
2019.01.02 35% OFF for Original Xiaomi Dyanmaic Driver+Balanced Armature Earphone b5d588 $ 49.40
2019.01.02 Redmi 6 EU 3+64G 12BGR66GG US$108.99
2019.01.02 Mi8 Lite 4+64G EU 1M8L4 US$214.99
2019.01.02 Mi A2 EU 4+64G 1BGA264 US$184.99
2019.01.02 Mi A2 Lite EU 3+32G 1BGA24CL2 US$146.99
2019.01.02 Mi A2 Lite EU 4+64G 1BGA2L64 US$165.99
2019.01.02 Redmi Note 5 CN 4+64G 1BGN5CL US$139.98
2019.01.02 Redmi 6A EU 2+16G 1BG6AGCL US$86.50
2019.01.02 Xiaomi Mi8 Pro Global Version 8 128GB 1BG8P US$479.99

 

Update on Dec.27,2018

Date Product name Link on Coupon
Coupon Price ($)
2018.12.27 Cube iWork10 Pro 154b92 180.0
2018.12.27 CHUWI Hi9 Plus f5c7d5 185.0
2018.12.27 Xiaomi MiPad 4 4+64 fb597a 230.0
2018.12.27 Xiaomi MiPad 4 Plus 4+128 01e34e 307.0
2018.12.27 Teclast T20 de3af3 184.99
2018.12.27 CHUWI Hi9 Air 3b9a14 159.99
2018.12.27 GOME Fenmmy Note 4GB 64GB Deals 12bgFN US$98.99
2018.12.27 LeEco Cool1 4 32 Deals 12MCC1 US$89.99
2018.12.27 Redmi 6 EU 3+64G 12BGR66GG US$108.99
2018.12.27 Mi8 Lite 6+128G EU 1BGM8L6 US$258.96
2018.12.27 Mi A2 Lite EU 4+64G 1BGA2L64 US$165.99
2018.12.27 Redmi 6 EU 3+32G 1BGR63 US$117.81

 

Update on Dec.25,2018

Date Product name Link on Coupon
Coupon Price ($)
2018.12.25 Redmi Note 6 Pro EU 3+32 1BGN6PG US$154.99
2018.12.25 Xiaomi Mi8 Pro Global Version 8 128GB 1BG8P US$479.99
2018.12.25 Redmi Note 5 CN 4+64G 12BGN5CL2 US$139.98
2018.12.25 Redmi 6 EU 3+64G 12BGR6CL3 US$108.99
2018.12.25 Mi8 6+64G EU 12B86GBGG US$338.99
2018.12.25 Mi8 6+128G EU 12BGM8CL2 US$381.17
2018.12.25 ZTE Blade A4 4GB 64GB 1BGA4 US$109.99

 

Update on Dec.24,2018

Date Product name Link on Coupon
Coupon Price ($)
2018.12.24 Redmi 6 EU 3+64G 12BGR6CL3 US$108.99
2018.12.24 xiaomi mix 3 Global 6+128 BGMIX3G US$499.99
2018.12.24 Mi8 6+64G EU 12B86GBGG US$338.99
2018.12.24 Mi8 Lite 4+64G EU 12M8L4G3 US$217.49
2018.12.24 Mi8 Lite 6+128G EU 12M8L62 US$263.11
2018.12.24 Redmi Note 5 CN 4+64G 12BGN5CL2 US$139.98
2018.12.24 Redmi 6A EU 2+16G 1BG6AG US$87.56
2018.12.24 Redmi 6 EU 3+32G 12BG63BG US$99.99

 

Update on Dec.22,2018

Date Product name Link on Coupon Coupon Price ($)
2018.12.22 OnePlus 6 6GB 64GB Deals 12bgop1 US$394.46
2018.12.22 OnePlus 6 8GB 128GB Deals 12bgop68 US$425.99
2018.12.22 OnePlus 6T 6GB 128GB Deals 12bgop4 US$517.90
2018.12.22 OnePlus 6T 8GB 128GB Deals 12bgop5 US$562.52

 

Update on Dec.21,2018

Date Product name Link on Coupon
Coupon Price ($)
2018.12.21 SHARP Z3 FS8009 Global Version 4GB 64GB Deals 12bgz3 US$109.99
2018.12.21 GOME Fenmmy Note 4GB 64GB Deals 12bgFN US$109.99
2018.12.21 Zeblaze THOR 4 Dual flash sale 0.1 Snap up
2018.12.21 Redmi 6 EU 3+64G 12BGR6CL3 US$117.76
2018.12.21 Mi8 6+128G EU 12BGM8CL2 US$381.17
2018.12.21 Pocophone F1 EU 6+64G 12F1BG3 US$288.99
2018.12.21 Mi A2 EU 4+64G 12BGA2CL3 US$189.99
2018.12.21 Mi A2 Lite EU 3+32G 12BGA24 US$151.29
2018.12.21 Mi A2 Lite EU 4+64G 12BGA2LCL2 US$165.99
2018.12.21 Redmi Note 6 Pro EU 3+32 12BGNO6G US$161.94
2018.12.21 Redmi 6A EU 2+16G 12BG6AG US$88.61
2018.12.21 Redmi 6 EU 3+32G 12BG63GB US$109.59
2018.12.21 MIX 2S EU 6+64G 12BGX2SG US$350.99
2018.12.21 Xiaomi Mi8 Pro Global Version 8 128GB 12BG8PCL2 US$489.99

 

Update on Dec.20,2018

Date Product name Link on Coupon
Coupon Price ($)
2018.12.20 Blitzwolf BW-S2 30BWS2 $6.99
2018.12.20 LeEco Cool1 4 32 Deals 12MCC1 US$89.99
2018.12.20 Nubia M2 Lite Deals 12MCM2L US$87.29
2018.12.20 Micromax Selfie 3 E460 3GB 32GB Deals 12MCMSE US$74.99
2018.12.20 International Version Xiaomi AMAZFIT Huami Strato Sports Smart Watch 2 69at2 $169.99

 

Update on Dec.19,2018

Date Product name Link on Coupon
Coupon Price ($)
2018.12.19 XiaoMi Yuemi MK06C Cherry Red Switch Mechanical Keyboard 9fab40 $80.99
2018.12.19 Original Xiaomi Mi band 3 Smart Wristband 39miband $23.39
2018.12.19 Promotion For DIY Music Box 10% OFF 10MBox
2018.12.19 RC Product Promotion For Celebrating Christmas 12% OFF DIYRC12
2018.12.19 New V2.0 Version FXT VIPER 5.8GHz Diversity HD FPV Goggles 10% OFF 2594f4 $152.10
2018.12.19 Eachine TX806 leaf 10% OFF 43d892 $13.49
2018.12.19 Topsky 2 Inch 5.8Ghz 48CH FPV Watch Monitor 18% OFF flash sale $36.95
2018.12.19 Eachine R051 150CH 5.8G FPV AV Receiver 68% OFF flash sale $18.99
2018.12.19 FXT Smart Gesture Box T82 V2 800TVL Camera 13% OFF flash sale
01-10pcs: $32.99
11-30pcs: $34.99
31-50pcs: $36.99
2018.12.19 Emax Babyhawk R Pro FPV Racing Drone 20% OFF rchobbies8 $147.19
2018.12.19 RC Multirotors Clearance 28% OFF 28rc
2018.12.19 6 Pairs DALPROP CYCLONE T5047C POPO Propeller 22% OFF flash sale $6.99
2018.12.19 Eachine Wizard TS130 FPV Racing Drone 25% OFF flash sale $119.00
2018.12.19 Waveshare 1.54 Inch E-ink Display Module 19% OFF flash sale $15.99
2018.12.19 New Arrivals For Module Up to 50% OFF flash sale
2018.12.19 Mi8 6+64G EU 12B86GB US$347.64
2018.12.19 Mi8 Lite 4+64G EU 12M8L4G2 US$219.99
2018.12.19 Mi A2 Lite EU 3+32G 12BGA24 US$151.29
2018.12.19 Redmi Note 5 CN 4+64G 12BGN5CL US$144.75
2018.12.19 Redmi 6A EU 2+16G 12BG6AG US$88.61
2018.12.19 Redmi 6A EU 2+32G 12BG6A3CL2 US$99.99
2018.12.19 Xiaomi Mi8 Pro Global Version 8 128GB 12BG8PCL US$498.39

 

Update on Dec.17,2018

Date Product name Link on Coupon
Coupon Price ($)
2018.12.17 Mi8 6+64G EU 12B86GB US$347.64
2018.12.17 Mi8 6+128G EU 12BGM8CL2 US$381.17
2018.12.17 Mi A2 EU 4+64G 12BGA2CL3 US$189.99
2018.12.17 Redmi Note 6 Pro EU 3+32 12BGNO6G US$161.94
2018.12.17 Redmi Note 6 Pro EU 4+64G BGR6CL4 US$184.67
2018.12.17 Redmi 6A EU 2+16G 12BG6AG US$88.61
2018.12.17 Redmi 6 EU 3+32G 12BG63GB US$109.59
2018.12.17 Xiaomi Mi8 Pro Global Version 8 128GB 12BG8128 US$498.39

 

Update on Dec.14,2018

Date Link on Coupon Link on Coupon
Coupon Price ($)
2018.12.14 Mi8 6+128G EU 12BGM8CL US$389.73
2018.12.14 Mi8 6+128G CN flash sale US$399.99
2018.12.14 Mi8 Lite 4+64G EU 12M8L4G2 US$219.99
2018.12.14 Pocophone F1 EU 6+64G 12F1BG2 US$295.79
2018.12.14 Pocophone F1 EU 6+128G 12F1BG6 US$317.88
2018.12.14 Mi A2 EU 4+64G 12BGA2CL2 US$194.95
2018.12.14 Mi A2 EU 6+128G have no coupon US$264.99
2018.12.14 Mi A2 Lite EU 4+64G 12BGA2LCL2 US$165.99
2018.12.14 Redmi Note 5 EU 4+64G 12BGN5 US$187.67
2018.12.14 Redmi Note 5 CN 4+64G 12BGN5CL US$144.75
2018.12.14 LeTV LeTV LeEco Le X620 4GB 32GB Deals 12bgX620 US$89.99
2018.12.14 Vernee Apollo Lite 4GB 32GB Deals 12bgVAL US$99.99

 

Update on Dec.13,2018

Date Product name Link on Coupon
Coupon Price ($)
2018.12.13 Redmi 6A EU 2+16G 12BGR6A3 US$91.78
2018.12.13 Redmi 6A EU 2+32G 12BG6A3CL US$105.88
2018.12.13 Xiaomi Mi8 Pro Global Version 8 128GB BGM8PG2 US$503.99
2018.12.13 Huawei Honor Note 10 6GB 128GB 12BGN10 US$439.99
2018.12.13 NOKIA X5 3GB 32GB 12BGNX5 US$139.99

 

Update on Dec.12,2018

Date Product name Link on Coupon
Coupon Price ($)
2018.12.12 LeTV LeEco Le Max 2 X821 4GB 64GB Deals 12bgX821 US$139.99
2018.12.12 Honor 10 Global 4GB 128GB deals 12BGH104 US$354.25
2018.12.12 Honor 8X Max 4GB 64GB 8BG8XM64 US$249.99
2018.12.12 Mi A2 EU 6+128G 12BGA263 US$254.53
2018.12.12 Redmi Note 5 CN 4+64G 12BGRN5 US$148.37
2018.12.12 Redmi Note 6 Pro EU 3+32 12BGN6CL2 US$165.89
2018.12.12 Redmi Note 6 Pro EU 4+64G BGR6CL3 US$187.53
2018.12.12 Redmi 6 EU 3+32G 12BG6CL2 US$116.44
2018.12.12 MIX 2S EU 6+64G 12BGX2SG US$350.99
2018.12.12 MAX 3 CN 6+128G 12BGM36 US$309.39

 

Update on Dec.11,2018

Date Product name Link on Coupon
Coupon Price ($)
2018.12.11 DOOGEE S70 Global Bands 6GB 64GB Deals 12bgs70 US$259.99
2018.12.11 Redmi 6 EU 3+64G 12BGR6CL2 US$119.20
2018.12.11 Mi8 6+64G EU 12M8G6CL3 US$355.82
2018.12.11 Mi A2 EU 4+64G 12BGA2CL US$197.39
2018.12.11 Redmi 6A EU 2+32G 12BG6A3CL US$105.88

 

Update on Dec.10,2018

Date Product name Link on Coupon
Coupon Price ($)
2018.12.10 UMIDIGI One Max 4GB 128GB Deals 12bgOM4 US$179.99
2018.12.10 Mi A2 Lite EU 4+64G 12BGA2LCL2 US$165.99
2018.12.10 Redmi Note 6 Pro EU 4+64G BGR6CL2 US$189.81
2018.12.10 Redmi 6A EU 2+16G 12BGR6A2 US$92.83
2018.12.10 Redmi Note 5 CN 4+64G 12BGRN5 US$148.37
2018.12.10 XIAOMI note3 6GB+128GB 12BGN3 US$249.99
2018.12.10 KXD K30 3GB 32GB 12BGK30 US$124.99
2018.12.10 E&L K20 3GB 32GB 12BGK20 US$124.99

 

Update on Dec.7, 2018

Date Product name Link on Coupon Coupon Price ($)
2018.12.07 Mi A2 EU 6+128G 12BGA262 US$257.39
2018.12.07 Redmi Note 5 CN 4+64G 12BGRN5 US$148.37
2018.12.07 Redmi Note 6 Pro EU 3+32 12BGN6CL2 US$165.89
2018.12.07 Redmi Note 6 Pro EU 4+64G BGR6CL US$192.10
2018.12.07 MAX 3 EU 4+64G 12BGM3 US$248.66
2018.12.07 Xiaomi Mi8 Pro Global Version 8 128GB BGM8PG US$509.59

 

Update on Dec.6, 2018

Date product name Link on Coupon
Coupon Price ($)
2018.12.06 SHARP Z2 Global Version Deals 12bgZ2G US$109.99
2018.12.06 LeTV LeEco Le 2 X520 Global Rom 3GB 64GB Deals 12bgX520 US$94.99
2018.12.06 Nubia M2 Lite Deals 12bgM2L US$97.99
2018.12.06 Nubia M2 Global Rom 4GB 64GB Deals 12bgM2 US$139.99
2018.12.06 SHARP R1S 3GB 32 GB Deals 12bgR1S US$99.99

 

Share.

Leave A Reply